»·PEaware :: N335AK KSAC-KSBP

N335AK :: KSAC-KSBP

FLIGHT INFORMATION

Flight Status: Arrived
Operator: Privately registered:
United States
More flights under this callsign
Pilot: Gabor H. (24209)
Aircraft: Unknown
(EPIC)
More flights by this aircraft type
Origin: KSAC Sacramento Executive
United States
Destination: KSBP San Luis Co Regl
United States
More flights between these airports :: More routes between these airports
Route: TIPRE T329 MQO
File this flight plan on PilotEdge
Remarks:
Altitude:
(Current/Filed)
17,000ft
Speed:
(Current/Filed)
325kts
Departed: 10-Oct-23 07:52 PM
Arrived: 10-Oct-23 08:42 PM
Distance/Time
Traveled:
201nm/0:50
Distance/Time
To Go:
Arrived

Flight Plot

Page will automatically refresh every two minutes.

Flight plan parsing failed; only flown route is shown


Map Options




Map Legend


Flown Route
Filed Route
Departure Airport
Arrival Airport
Navaid (VOR, NDB)
Fix

Horizontal Profiles

Position Reports

Time Latitude Longitude Heading Altitude Ground
Speed
10-Oct-23 19:39 38.514770 -121.498394 226 23ft 0kts
10-Oct-23 19:40 38.514770 -121.498394 226 23ft 0kts
10-Oct-23 19:41 38.514770 -121.498394 226 23ft 0kts
10-Oct-23 19:42 38.514770 -121.498394 226 23ft 0kts
10-Oct-23 19:43 38.514770 -121.498394 226 23ft 0kts
10-Oct-23 19:44 38.514770 -121.498394 226 23ft 0kts
10-Oct-23 19:45 38.514770 -121.498394 226 23ft 0kts
10-Oct-23 19:46 38.514760 -121.498406 226 23ft 0kts
10-Oct-23 19:47 38.514185 -121.497350 118 23ft 11kts
10-Oct-23 19:48 38.515248 -121.494096 33 25ft 13kts
10-Oct-23 19:49 38.518667 -121.491226 33 25ft 15kts
10-Oct-23 19:50 38.519170 -121.490507 92 25ft 0kts
10-Oct-23 19:51 38.513980 -121.493440 214 25ft 112kts
10-Oct-23 19:52 38.485026 -121.479994 104 1928ft 172kts
10-Oct-23 19:53 38.471976 -121.412315 104 3794ft 221kts
10-Oct-23 19:54 38.458921 -121.334544 111 7287ft 232kts
10-Oct-23 19:55 38.403264 -121.302470 171 10496ft 238kts
10-Oct-23 19:56 38.336571 -121.281169 175 13444ft 258kts
10-Oct-23 19:57 38.265066 -121.258543 178 16224ft 276kts
10-Oct-23 19:59 38.168978 -121.228297 176 16996ft 334kts
10-Oct-23 19:59 38.092113 -121.204061 176 16997ft 349kts
10-Oct-23 20:00 37.996877 -121.174123 176 17001ft 354kts
10-Oct-23 20:01 37.900727 -121.143970 176 16964ft 358kts
10-Oct-23 20:02 37.804173 -121.113761 175 16954ft 358kts
10-Oct-23 20:03 37.707771 -121.083718 175 16949ft 358kts
10-Oct-23 20:04 37.611394 -121.053728 175 16942ft 358kts
10-Oct-23 20:05 37.514962 -121.023812 175 16943ft 357kts
10-Oct-23 20:06 37.418601 -120.994000 175 16946ft 357kts
10-Oct-23 20:07 37.322449 -120.964335 175 16946ft 357kts
10-Oct-23 20:08 37.226136 -120.934683 175 16959ft 357kts
10-Oct-23 20:09 37.129657 -120.905078 175 16961ft 357kts
10-Oct-23 20:10 37.033104 -120.875517 175 16979ft 357kts
10-Oct-23 20:11 36.936864 -120.846136 174 16987ft 358kts
10-Oct-23 20:12 36.840380 -120.816729 175 16976ft 358kts
10-Oct-23 20:13 36.743666 -120.787370 174 16967ft 357kts
10-Oct-23 20:14 36.647421 -120.776334 187 16963ft 346kts
10-Oct-23 20:15 36.551306 -120.772798 187 16935ft 346kts
10-Oct-23 20:16 36.455273 -120.769290 187 16936ft 346kts
10-Oct-23 20:17 36.359072 -120.765787 187 16929ft 347kts
10-Oct-23 20:18 36.262488 -120.762273 187 16930ft 347kts
10-Oct-23 20:19 36.165849 -120.758809 187 16628ft 355kts
10-Oct-23 20:20 36.066496 -120.746165 173 14615ft 368kts
10-Oct-23 20:21 35.970721 -120.717222 172 12696ft 344kts
10-Oct-23 20:22 35.879751 -120.689754 170 10911ft 332kts
10-Oct-23 20:23 35.795740 -120.653042 158 9951ft 300kts
10-Oct-23 20:24 35.721882 -120.611719 158 9948ft 295kts
10-Oct-23 20:25 35.646181 -120.569350 158 9967ft 301kts
10-Oct-23 20:26 35.569864 -120.526787 158 10003ft 302kts
10-Oct-23 20:27 35.493115 -120.484068 158 10043ft 303kts
10-Oct-23 20:28 35.414442 -120.455133 180 9462ft 291kts
10-Oct-23 20:29 35.334176 -120.450110 179 8441ft 290kts
10-Oct-23 20:30 35.254107 -120.445099 179 7425ft 285kts
10-Oct-23 20:31 35.178344 -120.440371 178 6459ft 262kts
10-Oct-23 20:32 35.108140 -120.433025 169 5708ft 241kts
10-Oct-23 20:33 35.045931 -120.411430 130 4652ft 229kts
10-Oct-23 20:34 35.064500 -120.377022 312 3910ft 165kts
10-Oct-23 20:35 35.099369 -120.413365 321 3904ft 166kts
10-Oct-23 20:36 35.130946 -120.454732 308 3789ft 173kts
10-Oct-23 20:37 35.157520 -120.501102 308 3057ft 160kts
10-Oct-23 20:38 35.182406 -120.544730 308 2251ft 154kts
10-Oct-23 20:39 35.205365 -120.584945 306 1372ft 137kts
10-Oct-23 20:40 35.224950 -120.619289 306 603ft 110kts
10-Oct-23 20:41 35.238461 -120.642932 304 189ft 30kts
10-Oct-23 20:42 35.239526 -120.642947 127 186ft 13kts
10-Oct-23 20:43 35.236823 -120.638175 125 203ft 23kts
10-Oct-23 20:44 35.236372 -120.635856 123 211ft 0kts
10-Oct-23 20:45 35.236372 -120.635856 123 211ft 0kts
10-Oct-23 20:46 35.236372 -120.635856 123 211ft 0kts
10-Oct-23 20:47 35.236372 -120.635856 123 211ft 0kts
10-Oct-23 20:48 35.236372 -120.635856 123 211ft 0kts

Navigation Log

Ident Type
Flight plan parsing failed, navigation log unavailable